createdAt,value
2023-03-27T00:02:23.766Z,99808.13
2023-03-27T00:04:54.553Z,99807.94
2023-03-27T00:07:22.708Z,99812.94
2023-03-27T00:09:51.031Z,99812.28
2023-03-27T00:12:18.357Z,99810.00
2023-03-27T00:14:46.313Z,99802.91
2023-03-27T00:17:14.037Z,99807.28
2023-03-27T00:19:41.433Z,99812.72
2023-03-27T00:22:09.440Z,99818.97
2023-03-27T00:24:37.356Z,99824.16
2023-03-27T00:27:05.171Z,99819.31
2023-03-27T00:29:33.358Z,99818.00
2023-03-27T00:32:01.018Z,99821.72
2023-03-27T00:34:29.151Z,99822.56
2023-03-27T00:36:56.590Z,99825.38
2023-03-27T00:39:25.050Z,99827.34
2023-03-27T00:41:55.405Z,99824.00
2023-03-27T00:44:31.152Z,99827.13
2023-03-27T00:46:59.045Z,99822.34
2023-03-27T00:49:30.656Z,99827.13
2023-03-27T00:51:59.190Z,99830.69
2023-03-27T00:54:31.681Z,99838.19
2023-03-27T00:57:05.301Z,99842.16
2023-03-27T00:59:39.052Z,99838.41
2023-03-27T01:02:08.281Z,99833.59
2023-03-27T01:04:37.305Z,99845.91
2023-03-27T01:07:08.557Z,99846.53
2023-03-27T01:09:36.587Z,99846.75
2023-03-27T01:12:11.123Z,99836.31
2023-03-27T01:14:49.138Z,99837.59
2023-03-27T01:17:19.378Z,99842.59
2023-03-27T01:20:14.206Z,99844.41
2023-03-27T01:22:59.783Z,99832.34
2023-03-27T01:26:04.924Z,99843.31
2023-03-27T01:28:57.307Z,99827.03
2023-03-27T01:31:31.875Z,99826.41
2023-03-27T01:34:14.443Z,99848.88
2023-03-27T01:37:05.513Z,99851.16
2023-03-27T01:39:46.004Z,99846.59
2023-03-27T01:42:32.173Z,99845.75
2023-03-27T01:45:33.232Z,99842.22
2023-03-27T01:48:08.932Z,99851.16
2023-03-27T01:50:44.498Z,99850.34
2023-03-27T01:53:14.457Z,99846.56
2023-03-27T01:55:50.438Z,99852.03
2023-03-27T01:58:22.805Z,99853.06
2023-03-27T02:00:55.414Z,99854.88
2023-03-27T02:03:29.514Z,99854.06
2023-03-27T02:06:15.072Z,99847.84
2023-03-27T02:08:50.319Z,99846.41
2023-03-27T02:11:23.514Z,99855.56
2023-03-27T02:13:55.894Z,99856.84
2023-03-27T02:16:28.879Z,99851.63
2023-03-27T02:19:01.519Z,99847.47
2023-03-27T02:21:31.366Z,99843.13
2023-03-27T02:24:02.514Z,99854.56
2023-03-27T02:26:31.074Z,99851.88
2023-03-27T02:29:20.175Z,99840.19
2023-03-27T02:31:51.172Z,99852.06
2023-03-27T02:34:50.291Z,99859.38
2023-03-27T02:37:36.266Z,99843.91
2023-03-27T02:41:08.982Z,99840.78
2023-03-27T02:43:54.621Z,99847.28
2023-03-27T02:47:02.780Z,99844.09
2023-03-27T02:49:38.752Z,99844.13
2023-03-27T02:52:31.656Z,99850.78
2023-03-27T02:55:06.715Z,99858.47
2023-03-27T02:57:39.106Z,99861.59
2023-03-27T03:00:39.583Z,99861.38
2023-03-27T03:03:32.067Z,99859.75
2023-03-27T03:06:11.148Z,99862.00
2023-03-27T03:08:39.363Z,99856.56
2023-03-27T03:11:12.405Z,99855.53
2023-03-27T03:13:41.364Z,99863.47
2023-03-27T03:16:09.984Z,99866.34
2023-03-27T03:18:37.467Z,99872.84
2023-03-27T03:21:05.856Z,99878.66
2023-03-27T03:23:34.083Z,99888.66
2023-03-27T03:26:03.860Z,99893.47
2023-03-27T03:28:59.884Z,99893.28
2023-03-27T03:31:43.491Z,99894.09
2023-03-27T03:34:13.526Z,99906.63
2023-03-27T03:36:44.990Z,99909.19
2023-03-27T03:39:13.203Z,99914.34
2023-03-27T03:41:42.743Z,99911.63
2023-03-27T03:44:10.768Z,99910.41
2023-03-27T03:46:40.930Z,99920.59
2023-03-27T03:49:08.833Z,99916.81
2023-03-27T03:51:37.652Z,99920.56
2023-03-27T03:54:09.247Z,99927.59
2023-03-27T03:56:37.439Z,99944.06
2023-03-27T03:59:04.879Z,99935.94
2023-03-27T04:01:33.677Z,99941.34
2023-03-27T04:04:02.957Z,99936.53
2023-03-27T04:06:49.062Z,99930.50
2023-03-27T04:09:17.262Z,99938.03
2023-03-27T04:12:07.617Z,99944.88
2023-03-27T04:15:07.832Z,99955.88
2023-03-27T04:18:01.466Z,99952.72
2023-03-27T04:20:29.571Z,99947.50
2023-03-27T04:23:02.229Z,99946.69
2023-03-27T04:25:30.514Z,99947.06
2023-03-27T04:28:02.196Z,99942.94
2023-03-27T04:30:34.792Z,99946.47
2023-03-27T04:33:23.138Z,99950.56
2023-03-27T04:36:06.307Z,99948.06
2023-03-27T04:38:55.740Z,99939.16
2023-03-27T04:41:23.901Z,99946.25
2023-03-27T04:43:52.366Z,99957.69
2023-03-27T04:46:19.869Z,99960.22
2023-03-27T04:48:53.411Z,99961.69
2023-03-27T04:51:41.849Z,99970.84
2023-03-27T04:54:11.878Z,99955.00
2023-03-27T04:56:45.755Z,99972.03
2023-03-27T04:59:13.588Z,99976.44
2023-03-27T05:01:41.942Z,99980.34
2023-03-27T05:04:32.726Z,99978.78
2023-03-27T05:07:16.373Z,99984.47
2023-03-27T05:09:44.326Z,99996.56
2023-03-27T05:12:11.990Z,99987.34
2023-03-27T05:14:50.152Z,99986.13
2023-03-27T05:17:40.876Z,99990.88
2023-03-27T05:20:14.436Z,99998.88
2023-03-27T05:22:42.547Z,99988.69
2023-03-27T05:25:26.493Z,100001.00
2023-03-27T05:27:56.184Z,99997.00
2023-03-27T05:30:28.582Z,99995.56
2023-03-27T05:33:16.444Z,99992.91
2023-03-27T05:35:47.879Z,100000.59
2023-03-27T05:38:17.762Z,100001.00
2023-03-27T05:41:06.197Z,100001.84
2023-03-27T05:43:38.653Z,100008.81
2023-03-27T05:46:07.778Z,100016.38
2023-03-27T05:48:38.626Z,100002.44
2023-03-27T05:51:06.824Z,100001.22
2023-03-27T05:53:38.157Z,100009.34
2023-03-27T05:56:24.696Z,100016.09
2023-03-27T05:58:55.725Z,100020.50
2023-03-27T06:01:25.866Z,100017.59
2023-03-27T06:03:56.568Z,100014.94
2023-03-27T06:06:48.448Z,100016.47
2023-03-27T06:09:16.665Z,100018.38
2023-03-27T06:11:54.374Z,100026.56
2023-03-27T06:14:23.116Z,100033.47
2023-03-27T06:17:08.833Z,100031.63
2023-03-27T06:19:46.156Z,100036.44
2023-03-27T06:22:14.167Z,100043.97
2023-03-27T06:24:42.647Z,100053.13
2023-03-27T06:27:15.135Z,100056.09
2023-03-27T06:29:42.692Z,100050.66
2023-03-27T06:32:10.112Z,100050.91
2023-03-27T06:34:42.562Z,100052.38
2023-03-27T06:37:28.590Z,100064.50
2023-03-27T06:39:57.696Z,100063.03
2023-03-27T06:42:26.149Z,100074.94
2023-03-27T06:45:07.321Z,100079.97
2023-03-27T06:48:20.594Z,100081.44
2023-03-27T06:50:52.414Z,100077.06
2023-03-27T06:55:54.016Z,100081.63
2023-03-27T06:58:23.085Z,100085.59
2023-03-27T07:00:51.317Z,100100.63
2023-03-27T07:03:21.705Z,100085.38
2023-03-27T07:06:04.645Z,100079.91
2023-03-27T07:08:58.473Z,100091.22
2023-03-27T07:11:26.160Z,100103.97
2023-03-27T07:13:56.975Z,100093.28
2023-03-27T07:16:31.277Z,100097.84
2023-03-27T07:19:01.685Z,100090.91
2023-03-27T07:21:31.147Z,100097.59
2023-03-27T07:24:00.852Z,100100.28
2023-03-27T07:26:34.734Z,100123.06
2023-03-27T07:29:06.110Z,100115.78
2023-03-27T07:31:54.671Z,100135.44
2023-03-27T07:34:28.283Z,100140.41
2023-03-27T07:37:14.583Z,100134.72
2023-03-27T07:40:03.221Z,100135.28
2023-03-27T07:42:31.162Z,100143.59
2023-03-27T07:45:04.410Z,100146.44
2023-03-27T07:47:32.826Z,100156.66
2023-03-27T07:50:00.755Z,100152.03
2023-03-27T07:52:29.506Z,100150.13
2023-03-27T07:55:04.149Z,100157.69
2023-03-27T07:58:00.483Z,100163.53
2023-03-27T08:00:31.487Z,100173.91
2023-03-27T08:03:11.745Z,100177.19
2023-03-27T08:05:44.655Z,100177.84
2023-03-27T08:08:16.150Z,100174.94
2023-03-27T08:10:55.561Z,100175.06
2023-03-27T08:13:25.645Z,100177.81
2023-03-27T08:16:06.617Z,100212.13
2023-03-27T08:18:34.327Z,100190.91
2023-03-27T08:21:03.458Z,100190.25
2023-03-27T08:23:33.873Z,100190.38
2023-03-27T08:26:39.657Z,100189.31
2023-03-27T08:29:10.142Z,100191.72
2023-03-27T08:31:38.762Z,100191.06
2023-03-27T08:34:06.787Z,100193.19
2023-03-27T08:36:44.157Z,100199.47
2023-03-27T08:39:13.082Z,100210.16
2023-03-27T08:41:55.026Z,100196.00
2023-03-27T08:44:35.818Z,100210.31
2023-03-27T08:47:28.912Z,100215.13
2023-03-27T08:50:18.503Z,100223.13
2023-03-27T08:52:50.478Z,100234.06
2023-03-27T08:55:41.555Z,100231.31
2023-03-27T08:58:19.810Z,100241.47
2023-03-27T09:01:05.050Z,100238.72
2023-03-27T09:03:40.788Z,100240.13
2023-03-27T09:06:34.167Z,100241.56
2023-03-27T09:09:21.876Z,100250.13
2023-03-27T09:12:25.860Z,100244.56
2023-03-27T09:15:05.004Z,100253.31
2023-03-27T09:17:38.881Z,100259.66
2023-03-27T09:20:25.951Z,100259.75
2023-03-27T09:23:10.974Z,100248.44
2023-03-27T09:26:07.839Z,100246.56
2023-03-27T09:29:21.209Z,100257.31
2023-03-27T09:31:57.281Z,100253.34
2023-03-27T09:34:29.038Z,100256.03
2023-03-27T09:36:59.230Z,100253.94
2023-03-27T09:39:37.835Z,100257.78
2023-03-27T09:42:26.394Z,100254.41
2023-03-27T09:44:57.461Z,100248.59
2023-03-27T09:47:35.646Z,100252.34
2023-03-27T09:50:28.402Z,100264.09
2023-03-27T09:53:09.394Z,100268.75
2023-03-27T09:55:53.155Z,100258.53
2023-03-27T09:58:25.401Z,100260.69
2023-03-27T10:01:20.319Z,100270.41
2023-03-27T10:03:56.132Z,100277.16
2023-03-27T10:06:44.757Z,100278.94
2023-03-27T10:09:40.640Z,100283.31
2023-03-27T10:12:21.083Z,100277.75
2023-03-27T10:14:52.797Z,100283.41
2023-03-27T10:17:38.581Z,100289.25
2023-03-27T10:20:15.977Z,100287.50
2023-03-27T10:23:08.530Z,100285.06
2023-03-27T10:25:39.381Z,100285.81
2023-03-27T10:28:36.519Z,100290.25
2023-03-27T10:31:33.259Z,100296.41
2023-03-27T10:34:33.558Z,100292.91
2023-03-27T10:37:20.364Z,100310.22
2023-03-27T10:39:55.119Z,100297.25
2023-03-27T10:42:33.744Z,100303.50
2023-03-27T10:45:01.340Z,100303.81
2023-03-27T10:47:33.223Z,100308.91
2023-03-27T10:50:19.250Z,100293.50
2023-03-27T10:53:14.545Z,100302.91
2023-03-27T10:56:02.075Z,100300.34
2023-03-27T10:58:39.893Z,100308.41
2023-03-27T11:01:18.470Z,100302.34
2023-03-27T11:04:19.769Z,100305.59
2023-03-27T11:07:00.147Z,100312.72
2023-03-27T11:09:36.433Z,100319.19
2023-03-27T11:12:16.293Z,100313.19
2023-03-27T11:15:18.104Z,100317.56
2023-03-27T11:18:12.289Z,100319.69
2023-03-27T11:21:07.937Z,100321.78
2023-03-27T11:23:58.578Z,100329.69
2023-03-27T11:26:36.688Z,100310.09
2023-03-27T11:29:14.493Z,100316.50
2023-03-27T11:31:55.829Z,100319.84
2023-03-27T11:34:53.648Z,100325.19
2023-03-27T11:37:49.801Z,100330.22
2023-03-27T11:40:28.358Z,100329.34
2023-03-27T11:43:01.410Z,100333.25
2023-03-27T11:45:45.239Z,100334.38
2023-03-27T11:48:12.736Z,100351.06
2023-03-27T11:50:58.463Z,100339.28
2023-03-27T11:53:35.980Z,100339.28
2023-03-27T11:56:35.767Z,100338.81
2023-03-27T11:59:37.693Z,100349.09
2023-03-27T12:02:31.693Z,100339.53
2023-03-27T12:05:14.695Z,100344.06
2023-03-27T12:08:12.993Z,100360.44
2023-03-27T12:10:49.731Z,100361.00
2023-03-27T12:13:58.127Z,100357.69
2023-03-27T12:16:47.142Z,100350.03
2023-03-27T12:20:19.028Z,100349.03
2023-03-27T12:23:24.114Z,100361.44
2023-03-27T12:26:41.763Z,100384.09
2023-03-27T12:29:47.549Z,100375.31
2023-03-27T12:32:25.390Z,100387.75
2023-03-27T12:35:06.446Z,100382.56
2023-03-27T12:37:45.586Z,100371.03
2023-03-27T12:40:27.295Z,100388.38
2023-03-27T12:43:18.318Z,100386.88
2023-03-27T12:46:24.208Z,100379.16
2023-03-27T12:49:10.724Z,100381.16
2023-03-27T12:51:54.156Z,100388.19
2023-03-27T12:55:04.479Z,100393.69
2023-03-27T12:58:05.635Z,100394.81
2023-03-27T13:01:00.694Z,100390.31
2023-03-27T13:04:13.941Z,100390.56
2023-03-27T13:06:53.203Z,100379.09
2023-03-27T13:09:42.145Z,100393.31
2023-03-27T13:12:34.654Z,100395.31
2023-03-27T13:15:31.710Z,100399.34
2023-03-27T13:18:28.106Z,100398.19
2023-03-27T13:21:07.400Z,100393.19
2023-03-27T13:23:51.529Z,100388.25
2023-03-27T13:26:40.517Z,100391.53
2023-03-27T13:29:19.265Z,100397.56
2023-03-27T13:31:56.888Z,100408.00
2023-03-27T13:34:27.680Z,100403.09
2023-03-27T13:37:36.754Z,100398.91
2023-03-27T13:40:23.314Z,100406.13
2023-03-27T13:43:11.249Z,100395.00
2023-03-27T13:45:47.023Z,100396.88
2023-03-27T13:49:15.674Z,100400.50
2023-03-27T13:52:37.461Z,100401.03
2023-03-27T13:55:21.583Z,100408.94
2023-03-27T13:58:32.801Z,100402.34
2023-03-27T14:01:22.059Z,100421.16
2023-03-27T14:04:27.516Z,100416.72
2023-03-27T14:07:26.552Z,100422.44
2023-03-27T14:10:31.392Z,100426.97
2023-03-27T14:13:31.610Z,100434.59
2023-03-27T14:16:08.768Z,100411.75
2023-03-27T14:19:21.997Z,100383.00
2023-03-27T14:22:16.085Z,100316.56
2023-03-27T14:24:56.134Z,100306.84
2023-03-27T14:27:53.990Z,100308.91
2023-03-27T14:30:28.556Z,100321.38
2023-03-27T14:33:20.216Z,100322.41
2023-03-27T14:36:02.299Z,100347.53
2023-03-27T14:38:33.683Z,100355.84
2023-03-27T14:41:06.402Z,100384.25
2023-03-27T14:43:49.451Z,100409.91
2023-03-27T14:46:19.969Z,100440.69
2023-03-27T14:48:51.798Z,100456.81
2023-03-27T14:51:34.806Z,100467.41
2023-03-27T14:54:08.598Z,100463.31
2023-03-27T14:56:50.125Z,100488.69
2023-03-27T14:59:35.924Z,100476.34
2023-03-27T15:02:26.646Z,100483.16
2023-03-27T15:05:04.225Z,100488.13
2023-03-27T15:07:36.336Z,100495.47
2023-03-27T15:10:28.375Z,100506.53
2023-03-27T15:13:04.567Z,100522.13
2023-03-27T15:15:55.913Z,100509.44
2023-03-27T15:18:28.281Z,100508.06
2023-03-27T15:21:00.597Z,100514.53
2023-03-27T15:23:33.676Z,100514.91
2023-03-27T15:26:24.320Z,100521.75
2023-03-27T15:29:01.702Z,100514.09
2023-03-27T15:31:31.165Z,100516.66
2023-03-27T15:34:03.441Z,100509.94
2023-03-27T15:36:35.144Z,100516.53
2023-03-27T15:39:04.693Z,100531.75
2023-03-27T15:41:36.728Z,100514.50
2023-03-27T15:44:09.241Z,100515.81
2023-03-27T15:46:51.310Z,100519.28
2023-03-27T15:49:28.721Z,100528.94
2023-03-27T15:51:57.463Z,100534.22
2023-03-27T15:54:35.505Z,100537.31
2023-03-27T15:57:11.565Z,100545.16
2023-03-27T15:59:52.596Z,100549.22
2023-03-27T16:02:23.744Z,100555.22
2023-03-27T16:04:58.802Z,100554.53
2023-03-27T16:07:42.485Z,100565.41
2023-03-27T16:10:12.359Z,100561.59
2023-03-27T16:12:39.671Z,100569.34
2023-03-27T16:15:27.661Z,100567.53
2023-03-27T16:18:02.366Z,100565.31
2023-03-27T16:20:34.612Z,100558.84
2023-03-27T16:23:04.237Z,100575.41
2023-03-27T16:25:32.379Z,100578.22
2023-03-27T16:27:59.903Z,100583.41
2023-03-27T16:30:32.392Z,100572.25
2023-03-27T16:33:00.173Z,100585.00
2023-03-27T16:35:32.527Z,100594.25
2023-03-27T16:38:01.404Z,100602.75
2023-03-27T16:40:29.154Z,100599.56
2023-03-27T16:42:56.713Z,100600.38
2023-03-27T16:45:25.686Z,100612.25
2023-03-27T16:47:53.847Z,100634.06
2023-03-27T16:50:25.119Z,100636.81
2023-03-27T16:52:53.336Z,100637.38
2023-03-27T16:55:21.638Z,100642.19
2023-03-27T16:57:49.670Z,100662.84
2023-03-27T17:00:20.138Z,100651.19
2023-03-27T17:02:48.387Z,100660.69
2023-03-27T17:05:16.239Z,100665.59
2023-03-27T17:07:46.540Z,100678.06
2023-03-27T17:10:14.805Z,100683.22
2023-03-27T17:12:42.488Z,100680.94
2023-03-27T17:15:10.753Z,100687.75
2023-03-27T17:17:38.670Z,100709.75
2023-03-27T17:20:07.909Z,100718.66
2023-03-27T17:22:36.142Z,100724.94
2023-03-27T17:25:05.959Z,100731.00
2023-03-27T17:27:33.646Z,100728.81
2023-03-27T17:30:01.231Z,100731.56
2023-03-27T17:32:29.068Z,100740.25
2023-03-27T17:34:56.693Z,100743.63
2023-03-27T17:37:25.944Z,100757.38
2023-03-27T17:39:54.750Z,100756.28
2023-03-27T17:42:22.431Z,100758.25
2023-03-27T17:44:49.953Z,100771.16
2023-03-27T17:47:18.352Z,100773.78
2023-03-27T17:49:45.865Z,100779.78
2023-03-27T17:52:14.267Z,100784.69
2023-03-27T17:54:42.262Z,100786.56
2023-03-27T17:57:09.729Z,100797.19
2023-03-27T17:59:38.654Z,100798.88
2023-03-27T18:02:07.558Z,100803.16
2023-03-27T18:04:36.484Z,100812.22
2023-03-27T18:07:04.340Z,100814.53
2023-03-27T18:09:34.510Z,100825.31
2023-03-27T18:12:01.977Z,100825.75
2023-03-27T18:14:29.595Z,100832.13
2023-03-27T18:16:57.126Z,100843.22
2023-03-27T18:19:25.232Z,100847.66
2023-03-27T18:21:53.072Z,100847.94
2023-03-27T18:24:21.256Z,100855.31
2023-03-27T18:26:48.890Z,100864.16
2023-03-27T18:29:16.631Z,100864.31
2023-03-27T18:31:44.991Z,100873.59
2023-03-27T18:34:12.550Z,100884.50
2023-03-27T18:36:40.594Z,100884.50
2023-03-27T18:39:08.631Z,100896.94
2023-03-27T18:41:36.142Z,100918.34
2023-03-27T18:44:03.579Z,100928.03
2023-03-27T18:46:31.537Z,100912.03
2023-03-27T18:49:03.308Z,100923.19
2023-03-27T18:51:35.190Z,100932.81
2023-03-27T18:54:02.578Z,100934.69
2023-03-27T18:56:29.889Z,100944.53
2023-03-27T18:58:57.281Z,100947.47
2023-03-27T19:01:24.825Z,100958.59
2023-03-27T19:03:52.213Z,100971.41
2023-03-27T19:06:20.233Z,100979.16
2023-03-27T19:08:48.026Z,100980.84
2023-03-27T19:11:16.266Z,100990.03
2023-03-27T19:14:02.579Z,100999.03
2023-03-27T19:16:33.352Z,101003.88
2023-03-27T19:19:37.013Z,101013.28
2023-03-27T19:22:20.554Z,101028.56
2023-03-27T19:24:54.517Z,101037.53
2023-03-27T19:27:23.450Z,101043.19
2023-03-27T19:29:54.820Z,101041.31
2023-03-27T19:32:24.281Z,101045.84
2023-03-27T19:34:51.765Z,101057.38
2023-03-27T19:37:19.533Z,101057.22
2023-03-27T19:39:47.232Z,101066.63
2023-03-27T19:42:14.642Z,101070.38
2023-03-27T19:44:42.637Z,101077.25
2023-03-27T19:47:10.077Z,101078.41
2023-03-27T19:49:37.885Z,101080.91
2023-03-27T19:52:18.636Z,101080.59
2023-03-27T19:54:47.085Z,101089.56
2023-03-27T19:57:15.065Z,101098.31
2023-03-27T19:59:42.509Z,101096.38
2023-03-27T20:02:12.795Z,101106.94
2023-03-27T20:04:40.503Z,101113.84
2023-03-27T20:07:08.223Z,101120.91
2023-03-27T20:09:36.476Z,101124.19
2023-03-27T20:12:06.439Z,101130.25
2023-03-27T20:14:33.892Z,101141.47
2023-03-27T20:17:01.272Z,101140.16
2023-03-27T20:19:30.479Z,101148.13
2023-03-27T20:22:00.195Z,101147.94
2023-03-27T20:24:28.907Z,101164.84
2023-03-27T20:26:59.647Z,101153.56
2023-03-27T20:29:27.603Z,101163.03
2023-03-27T20:31:55.733Z,101162.66
2023-03-27T20:34:24.260Z,101178.91
2023-03-27T20:36:54.969Z,101177.19
2023-03-27T20:39:34.842Z,101179.03
2023-03-27T20:42:02.183Z,101176.97
2023-03-27T20:44:35.419Z,101181.91
2023-03-27T20:47:10.912Z,101183.31
2023-03-27T20:49:45.291Z,101196.09
2023-03-27T20:52:16.302Z,101195.19
2023-03-27T20:54:44.527Z,101198.75
2023-03-27T20:57:13.482Z,101209.38
2023-03-27T20:59:40.865Z,101205.19
2023-03-27T21:02:16.936Z,101213.50
2023-03-27T21:04:46.736Z,101213.72
2023-03-27T21:07:15.798Z,101216.50
2023-03-27T21:09:45.672Z,101232.78
2023-03-27T21:12:13.649Z,101242.56
2023-03-27T21:14:41.225Z,101243.47
2023-03-27T21:17:12.226Z,101259.03
2023-03-27T21:19:39.646Z,101258.25
2023-03-27T21:22:06.999Z,101260.31
2023-03-27T21:24:34.825Z,101273.25
2023-03-27T21:27:03.433Z,101270.91
2023-03-27T21:29:31.142Z,101276.44
2023-03-27T21:31:59.036Z,101283.41
2023-03-27T21:34:27.335Z,101288.41
2023-03-27T21:36:54.908Z,101287.50
2023-03-27T21:39:22.352Z,101307.84
2023-03-27T21:41:49.728Z,101312.09
2023-03-27T21:44:17.383Z,101310.56
2023-03-27T21:46:45.222Z,101323.97
2023-03-27T21:49:12.591Z,101331.28
2023-03-27T21:51:39.978Z,101328.47
2023-03-27T21:54:08.068Z,101339.13
2023-03-27T21:56:35.665Z,101351.19
2023-03-27T21:59:03.990Z,101346.78
2023-03-27T22:01:31.750Z,101367.31
2023-03-27T22:04:02.320Z,101355.78
2023-03-27T22:06:30.066Z,101368.16
2023-03-27T22:08:58.134Z,101370.22
2023-03-27T22:11:26.001Z,101384.13
2023-03-27T22:13:53.902Z,101387.91
2023-03-27T22:16:21.605Z,101395.03
2023-03-27T22:18:49.828Z,101392.34
2023-03-27T22:21:29.121Z,101402.00
2023-03-27T22:23:58.551Z,101407.13
2023-03-27T22:26:30.404Z,101412.88
2023-03-27T22:28:59.802Z,101419.34
2023-03-27T22:31:27.404Z,101422.06
2023-03-27T22:33:55.786Z,101422.72
2023-03-27T22:36:23.362Z,101432.69
2023-03-27T22:38:51.077Z,101441.97
2023-03-27T22:41:18.984Z,101452.69
2023-03-27T22:43:49.423Z,101443.72
2023-03-27T22:46:20.749Z,101449.16
2023-03-27T22:48:56.868Z,101450.38
2023-03-27T22:51:25.983Z,101444.78
